Paula Ruble — WDF2276 — position and weather

sailwx.info

Track history (hours):
 
Tides and Currents Weather Stations Pressure Air Temp Water Temp Dewpoint Dewpoint Depression Visibility Wind Speed Wind Dir Waves Ship Positions

Paula Ruble

Owner: Crounse Corporation, Maysville, KY. More information available from US FCC via Universal Licensing System and Coast Guard Vessel Documentation Center.

Last reported at 2015-Jun-30 09:05 UTC. Time now 2015-Jun-30 12:40 UTC.
Position N 38°54' W 084°51'.

Length 42 m.

Type: Tow > 200 m length. MMSI: 367426860.

Date/timePositionNaut miles runAvg speedWind from/ knotsBaromVisibWave heightAir tempDewpointWater temp
2015-Jun-30 09:05N 38°54' W 084°51'2 4.3
2015-Jun-30 08:33N 38°56' W 084°52'6 6.2
2015-Jun-30 07:32N 39°02' W 084°53'7 6.8
2015-Jun-30 06:33N 39°07' W 084°47'5 5.5
2015-Jun-30 05:33N 39°06' W 084°40'7 6.8
2015-Jun-30 04:32N 39°05' W 084°31'5 4.7
2015-Jun-30 03:33N 39°04' W 084°26'7 7.1
2015-Jun-30 02:33N 38°60' W 084°18'7 7.5
2015-Jun-30 01:33N 38°53' W 084°14'1 0.9
2015-Jun-30 00:33N 38°52' W 084°14'0 0.0
2015-Jun-29 23:32N 38°52' W 084°14'0 0.3
2015-Jun-29 22:32N 38°52' W 084°14'1 0.7
2015-Jun-29 21:33N 38°53' W 084°14'5 4.7
2015-Jun-29 20:32N 38°48' W 084°12'2 1.5
2015-Jun-29 19:06N 38°48' W 084°09'10 5.3
2015-Jun-29 17:12N 38°47' W 083°56'4 6.1
2015-Jun-29 16:33N 38°45' W 083°51'  
2015-Jun-22 07:29N 38°34' W 082°48'37 2.1
2015-Jun-21 13:32N 38°41' W 083°34'6 3.0
2015-Jun-21 11:33N 38°38' W 083°40'7 3.0
2015-Jun-21 09:12N 38°42' W 083°47'6 3.3
2015-Jun-21 07:30N 38°46' W 083°53'7 3.7
2015-Jun-21 05:33N 38°46' W 084°02'4 4.1
2015-Jun-21 04:33N 38°47' W 084°07'3 2.6
2015-Jun-21 03:27N 38°48' W 084°10'3 2.9
2015-Jun-21 02:31N 38°49' W 084°14'3 3.3
2015-Jun-21 01:33N 38°52' W 084°14'3 3.4
2015-Jun-21 00:33N 38°55' W 084°16'3 3.5
2015-Jun-20 23:34N 38°58' W 084°18'3 3.4
2015-Jun-20 22:33N 39°01' W 084°19'3 3.5
2015-Jun-20 21:33N 39°03' W 084°24'3 3.0
2015-Jun-20 20:33N 39°05' W 084°26'3 2.7
2015-Jun-20 19:32N 39°07' W 084°28'3 3.1
2015-Jun-20 18:33N 39°05' W 084°31'3 2.6
2015-Jun-20 17:33N 39°05' W 084°35'3 3.0
2015-Jun-20 16:33N 39°05' W 084°39'3 3.3
2015-Jun-20 15:33N 39°07' W 084°42'3 3.1
2015-Jun-20 14:33N 39°08' W 084°46'3 3.3
2015-Jun-20 13:30N 39°06' W 084°49'3 2.9
2015-Jun-20 12:27N 39°04' W 084°52'6 2.7
2015-Jun-20 10:13N 38°59' W 084°50'2 3.2
2015-Jun-20 09:31N 38°57' W 084°51'  
Track history (hours):
 
Tides and Currents Weather Stations Pressure Air Temp Water Temp Dewpoint Dewpoint Depression Visibility Wind Speed Wind Dir Waves Ship Positions

Paula Ruble

Owner: Crounse Corporation, Maysville, KY. More information available from US FCC via Universal Licensing System and Coast Guard Vessel Documentation Center.

Last reported at 2015-Jun-30 09:05 UTC. Time now 2015-Jun-30 12:40 UTC.
Position N 38°54' W 084°51'.

Length 42 m.

Type: Tow > 200 m length. MMSI: 367426860.

Date/timePositionNaut miles runAvg speedWind from/ knotsBaromVisibWave heightAir tempDewpointWater temp
2015-Jun-30 09:05N 38°54' W 084°51'2 4.3
2015-Jun-30 08:33N 38°56' W 084°52'6 6.2
2015-Jun-30 07:32N 39°02' W 084°53'7 6.8
2015-Jun-30 06:33N 39°07' W 084°47'5 5.5
2015-Jun-30 05:33N 39°06' W 084°40'7 6.8
2015-Jun-30 04:32N 39°05' W 084°31'5 4.7
2015-Jun-30 03:33N 39°04' W 084°26'7 7.1
2015-Jun-30 02:33N 38°60' W 084°18'7 7.5
2015-Jun-30 01:33N 38°53' W 084°14'1 0.9
2015-Jun-30 00:33N 38°52' W 084°14'0 0.0
2015-Jun-29 23:32N 38°52' W 084°14'0 0.3
2015-Jun-29 22:32N 38°52' W 084°14'1 0.7
2015-Jun-29 21:33N 38°53' W 084°14'5 4.7
2015-Jun-29 20:32N 38°48' W 084°12'2 1.5
2015-Jun-29 19:06N 38°48' W 084°09'10 5.3
2015-Jun-29 17:12N 38°47' W 083°56'4 6.1
2015-Jun-29 16:33N 38°45' W 083°51'  
2015-Jun-22 07:29N 38°34' W 082°48'37 2.1
2015-Jun-21 13:32N 38°41' W 083°34'6 3.0
2015-Jun-21 11:33N 38°38' W 083°40'7 3.0
2015-Jun-21 09:12N 38°42' W 083°47'6 3.3
2015-Jun-21 07:30N 38°46' W 083°53'7 3.7
2015-Jun-21 05:33N 38°46' W 084°02'4 4.1
2015-Jun-21 04:33N 38°47' W 084°07'3 2.6
2015-Jun-21 03:27N 38°48' W 084°10'3 2.9
2015-Jun-21 02:31N 38°49' W 084°14'3 3.3
2015-Jun-21 01:33N 38°52' W 084°14'3 3.4
2015-Jun-21 00:33N 38°55' W 084°16'3 3.5
2015-Jun-20 23:34N 38°58' W 084°18'3 3.4
2015-Jun-20 22:33N 39°01' W 084°19'3 3.5
2015-Jun-20 21:33N 39°03' W 084°24'3 3.0
2015-Jun-20 20:33N 39°05' W 084°26'3 2.7
2015-Jun-20 19:32N 39°07' W 084°28'3 3.1
2015-Jun-20 18:33N 39°05' W 084°31'3 2.6
2015-Jun-20 17:33N 39°05' W 084°35'3 3.0
2015-Jun-20 16:33N 39°05' W 084°39'3 3.3
2015-Jun-20 15:33N 39°07' W 084°42'3 3.1
2015-Jun-20 14:33N 39°08' W 084°46'3 3.3
2015-Jun-20 13:30N 39°06' W 084°49'3 2.9
2015-Jun-20 12:27N 39°04' W 084°52'6 2.7
2015-Jun-20 10:13N 38°59' W 084°50'2 3.2
2015-Jun-20 09:31N 38°57' W 084°51'  

Dump ship's entire track history